Terminal Aerodrome Forecast
Issued by NWS Springfield, MO

Current Version | Previous Version | Text Only | Print | Product List | Glossary On
Versions: 1 2 3 4 5 6 7 8 9 10 11 12 13 14 15 16 17
000
FTUS43 KSGF 222320
TAFSGF
TAF
KSGF 222320Z 2300/2324 14011KT P6SM OVC040
     FM230900 14014KT P6SM OVC030
     FM231000 15015KT P6SM OVC025 PROB30 2310/2316 P6SM -DZ
     FM231600 16015G21KT P6SM BKN040
     FM231800 17017G23KT P6SM SCT250=

USA.gov is the U.S. government's official web portal to all federal, state and local government web resources and services.